sensor_id;sensor_type;location;lat;lon;timestamp;P1;P4;P2;P0;N10;N4;N25;N1;N05;TS
64091;SPS30;50348;51.992;8.380;2023-05-15T00:03:00;8.1;;8.1;7.7;;;;;;
64091;SPS30;50348;51.992;8.380;2023-05-15T00:08:00;8.3;;8.3;7.9;;;;;;
64091;SPS30;50348;51.992;8.380;2023-05-15T00:10:41;8.8;;8.8;8.3;;;;;;
64091;SPS30;50348;51.992;8.380;2023-05-15T00:13:43;8;;8;7.6;;;;;;
64091;SPS30;50348;51.992;8.380;2023-05-15T00:16:01;8.9;;8.9;8.5;;;;;;
64091;SPS30;50348;51.992;8.380;2023-05-15T00:24:38;8.6;;8.6;8.2;;;;;;
64091;SPS30;50348;51.992;8.380;2023-05-15T00:26:54;9.4;;9.4;8.9;;;;;;
64091;SPS30;50348;51.992;8.380;2023-05-15T00:32:29;8.1;;8.1;7.8;;;;;;
64091;SPS30;50348;51.992;8.380;2023-05-15T00:39:56;8.3;;8.3;7.9;;;;;;
64091;SPS30;50348;51.992;8.380;2023-05-15T00:44:45;9;;9;8.6;;;;;;
64091;SPS30;50348;51.992;8.380;2023-05-15T00:53:12;8.6;;8.6;8.2;;;;;;
64091;SPS30;50348;51.992;8.380;2023-05-15T00:58:20;9.1;;9.1;8.7;;;;;;
64091;SPS30;50348;51.992;8.380;2023-05-15T01:00:33;9.6;;9.6;9.2;;;;;;
64091;SPS30;50348;51.992;8.380;2023-05-15T01:08:12;8.9;;8.9;9.1;;;;;;
64091;SPS30;50348;51.992;8.380;2023-05-15T01:10:43;8.7;;8.7;8.4;;;;;;
64091;SPS30;50348;51.992;8.380;2023-05-15T01:13:36;9.1;;9.1;8.3;;;;;;
64091;SPS30;50348;51.992;8.380;2023-05-15T01:18:14;9.9;;9.9;8.7;;;;;;
64091;SPS30;50348;51.992;8.380;2023-05-15T01:21:10;9.4;;9.4;9;;;;;;
64091;SPS30;50348;51.992;8.380;2023-05-15T01:23:14;10.5;;10.5;10;;;;;;
64091;SPS30;50348;51.992;8.380;2023-05-15T01:25:43;10.1;;10.1;9.7;;;;;;
64091;SPS30;50348;51.992;8.380;2023-05-15T01:30:35;9.4;;9.4;9;;;;;;
64091;SPS30;50348;51.992;8.380;2023-05-15T01:33:02;9.7;;9.7;9.3;;;;;;
64091;SPS30;50348;51.992;8.380;2023-05-15T01:35:49;9.3;;9.3;8.9;;;;;;
64091;SPS30;50348;51.992;8.380;2023-05-15T01:40:16;9.2;;9.2;8.8;;;;;;
64091;SPS30;50348;51.992;8.380;2023-05-15T01:42:41;9.5;;9.5;9.1;;;;;;
64091;SPS30;50348;51.992;8.380;2023-05-15T01:45:25;11.2;;11.2;10.7;;;;;;
64091;SPS30;50348;51.992;8.380;2023-05-15T01:49:48;11;;11;10.5;;;;;;
64091;SPS30;50348;51.992;8.380;2023-05-15T01:52:12;10.1;;10.1;9.6;;;;;;
64091;SPS30;50348;51.992;8.380;2023-05-15T01:54:54;9.5;;9.5;9.1;;;;;;
64091;SPS30;50348;51.992;8.380;2023-05-15T01:57:59;10.2;;10.2;9.7;;;;;;
64091;SPS30;50348;51.992;8.380;2023-05-15T02:00:18;9.5;;9.5;9.1;;;;;;
64091;SPS30;50348;51.992;8.380;2023-05-15T02:06:02;9.7;;9.7;9.3;;;;;;
64091;SPS30;50348;51.992;8.380;2023-05-15T02:08:21;9.3;;9.3;8.8;;;;;;
64091;SPS30;50348;51.992;8.380;2023-05-15T02:11:00;9.5;;9.5;9;;;;;;
64091;SPS30;50348;51.992;8.380;2023-05-15T02:14:01;9.9;;9.9;9.5;;;;;;
64091;SPS30;50348;51.992;8.380;2023-05-15T02:16:18;10.3;;10.3;9.8;;;;;;
64091;SPS30;50348;51.992;8.380;2023-05-15T02:21:55;10.5;;10.5;10;;;;;;
64091;SPS30;50348;51.992;8.380;2023-05-15T02:24:54;9.6;;9.6;9.2;;;;;;
64091;SPS30;50348;51.992;8.380;2023-05-15T02:27:11;10.6;;10.6;10.1;;;;;;
64091;SPS30;50348;51.992;8.380;2023-05-15T02:29:50;10.4;;10.4;9.9;;;;;;
64091;SPS30;50348;51.992;8.380;2023-05-15T02:32:46;10.5;;10.5;10;;;;;;
64091;SPS30;50348;51.992;8.380;2023-05-15T02:40:11;9.9;;9.9;9.4;;;;;;
64091;SPS30;50348;51.992;8.380;2023-05-15T02:42:47;10.2;;10.2;9.7;;;;;;
64091;SPS30;50348;51.992;8.380;2023-05-15T02:45:43;9.6;;9.6;9.1;;;;;;
64091;SPS30;50348;51.992;8.380;2023-05-15T02:47:55;9.8;;9.8;9.4;;;;;;
64091;SPS30;50348;51.992;8.380;2023-05-15T02:53:23;10.5;;10.5;10;;;;;;
64091;SPS30;50348;51.992;8.380;2023-05-15T02:56:17;11.3;;11.3;10.7;;;;;;
64091;SPS30;50348;51.992;8.380;2023-05-15T02:58:28;10.1;;10.1;9.6;;;;;;
64091;SPS30;50348;51.992;8.380;2023-05-15T03:03:52;9.8;;9.8;9.4;;;;;;
64091;SPS30;50348;51.992;8.380;2023-05-15T03:08:53;10.8;;10.8;10.3;;;;;;
64091;SPS30;50348;51.992;8.380;2023-05-15T03:11:23;11.5;;11.5;11;;;;;;
64091;SPS30;50348;51.992;8.380;2023-05-15T03:14:14;10.5;;10.5;10;;;;;;
64091;SPS30;50348;51.992;8.380;2023-05-15T03:18:49;10.7;;10.7;10.2;;;;;;
64091;SPS30;50348;51.992;8.380;2023-05-15T03:21:39;10.3;;10.3;9.9;;;;;;
64091;SPS30;50348;51.992;8.380;2023-05-15T03:23:44;10.7;;10.7;10.2;;;;;;
64091;SPS30;50348;51.992;8.380;2023-05-15T03:26:10;9.8;;9.8;9.3;;;;;;
64091;SPS30;50348;51.992;8.380;2023-05-15T03:31:01;10.1;;10.1;9.6;;;;;;
64091;SPS30;50348;51.992;8.380;2023-05-15T03:33:25;10.8;;10.8;10.3;;;;;;
64091;SPS30;50348;51.992;8.380;2023-05-15T03:36:11;10.7;;10.7;10.2;;;;;;
64091;SPS30;50348;51.992;8.380;2023-05-15T03:40:36;10.9;;10.9;10.4;;;;;;
64091;SPS30;50348;51.992;8.380;2023-05-15T03:42:58;12.8;;12.8;12.2;;;;;;
64091;SPS30;50348;51.992;8.380;2023-05-15T03:45:42;11.7;;11.7;11.1;;;;;;
64091;SPS30;50348;51.992;8.380;2023-05-15T03:48:46;12.1;;12.1;11.5;;;;;;
64091;SPS30;50348;51.992;8.380;2023-05-15T03:53:49;13.1;;13.1;12.5;;;;;;
64091;SPS30;50348;51.992;8.380;2023-05-15T03:56:51;11.8;;11.8;11.2;;;;;;
64091;SPS30;50348;51.992;8.380;2023-05-15T03:59:10;11.9;;11.9;11.4;;;;;;
64091;SPS30;50348;51.992;8.380;2023-05-15T04:01:50;12.2;;12.2;11.6;;;;;;
64091;SPS30;50348;51.992;8.380;2023-05-15T04:04:50;11.9;;11.9;11.3;;;;;;
64091;SPS30;50348;51.992;8.380;2023-05-15T04:09:45;11.7;;11.7;11.2;;;;;;
64091;SPS30;50348;51.992;8.380;2023-05-15T04:12:44;11.6;;11.6;11.1;;;;;;
64091;SPS30;50348;51.992;8.380;2023-05-15T04:15:12;9.9;;9.9;9.4;;;;;;
64091;SPS30;50348;51.992;8.380;2023-05-15T04:17:36;9.8;;9.8;9.3;;;;;;
64091;SPS30;50348;51.992;8.380;2023-05-15T04:20:32;10.4;;10.4;9.9;;;;;;
64091;SPS30;50348;51.992;8.380;2023-05-15T04:28:16;11;;11;10.5;;;;;;
64091;SPS30;50348;51.992;8.380;2023-05-15T04:30:28;9.6;;9.6;9.1;;;;;;
64091;SPS30;50348;51.992;8.380;2023-05-15T04:33:00;9.7;;9.7;9.2;;;;;;
64091;SPS30;50348;51.992;8.380;2023-05-15T04:38:04;11.7;;11.7;11.2;;;;;;
64091;SPS30;50348;51.992;8.380;2023-05-15T04:40:14;11.1;;11.1;10.6;;;;;;
64091;SPS30;50348;51.992;8.380;2023-05-15T04:42:44;9.8;;9.8;9.4;;;;;;
64091;SPS30;50348;51.992;8.380;2023-05-15T04:45:36;10.4;;10.4;9.9;;;;;;
64091;SPS30;50348;51.992;8.380;2023-05-15T04:50:14;12;;12;11.4;;;;;;
64091;SPS30;50348;51.992;8.380;2023-05-15T04:52:43;13.4;;13.4;12.8;;;;;;
64091;SPS30;50348;51.992;8.380;2023-05-15T04:55:33;12.5;;12.5;12;;;;;;
64091;SPS30;50348;51.992;8.380;2023-05-15T05:00:07;13.1;;13.1;12.5;;;;;;
64091;SPS30;50348;51.992;8.380;2023-05-15T05:02:54;14.1;;14.1;13.4;;;;;;
64091;SPS30;50348;51.992;8.380;2023-05-15T05:04:59;13.6;;13.6;13;;;;;;
64091;SPS30;50348;51.992;8.380;2023-05-15T05:10:10;13.3;;13.3;12.7;;;;;;
64091;SPS30;50348;51.992;8.380;2023-05-15T05:12:13;14.5;;14.5;13.8;;;;;;
64091;SPS30;50348;51.992;8.380;2023-05-15T05:14:37;14.6;;14.6;13.9;;;;;;
64091;SPS30;50348;51.992;8.380;2023-05-15T05:17:20;15.1;;15.1;14.4;;;;;;
64091;SPS30;50348;51.992;8.380;2023-05-15T05:21:43;15.9;;15.9;15.2;;;;;;
64091;SPS30;50348;51.992;8.380;2023-05-15T05:24:26;16.5;;16.5;15.7;;;;;;
64091;SPS30;50348;51.992;8.380;2023-05-15T05:32:29;16.7;;16.7;15.8;;;;;;
64091;SPS30;50348;51.992;8.380;2023-05-15T05:35:10;17.1;;17.1;16;;;;;;
64091;SPS30;50348;51.992;8.380;2023-05-15T05:38:12;16.8;;16.8;16.3;;;;;;
64091;SPS30;50348;51.992;8.380;2023-05-15T05:40:30;17.6;;17.6;16;;;;;;
64091;SPS30;50348;51.992;8.380;2023-05-15T05:43:09;17.3;;17.3;16.8;;;;;;
64091;SPS30;50348;51.992;8.380;2023-05-15T05:46:08;17.6;;17.6;16.5;;;;;;
64091;SPS30;50348;51.992;8.380;2023-05-15T05:51:02;17.2;;17.2;16.8;;;;;;
64091;SPS30;50348;51.992;8.380;2023-05-15T05:53:59;19.7;;19.7;16.4;;;;;;
64091;SPS30;50348;51.992;8.380;2023-05-15T05:56:13;18.9;;18.9;18.8;;;;;;
64091;SPS30;50348;51.992;8.380;2023-05-15T05:58:48;18.7;;18.7;18;;;;;;
64091;SPS30;50348;51.992;8.380;2023-05-15T06:01:44;19.2;;19.2;17.8;;;;;;
64091;SPS30;50348;51.992;8.380;2023-05-15T06:06:30;17.9;;18.1;18.3;;;;;;
64091;SPS30;50348;51.992;8.380;2023-05-15T06:09:24;19.4;;19.4;17;;;;;;
64091;SPS30;50348;51.992;8.380;2023-05-15T06:11:35;18.5;;18.5;18.5;;;;;;
64091;SPS30;50348;51.992;8.380;2023-05-15T06:16:59;18.7;;18.7;17.7;;;;;;
64091;SPS30;50348;51.992;8.380;2023-05-15T06:19:07;19.9;;19.9;17.8;;;;;;
64091;SPS30;50348;51.992;8.380;2023-05-15T06:21:17;19.4;;19.4;19;;;;;;
64091;SPS30;50348;51.992;8.380;2023-05-15T06:26:40;18.9;;18.9;18.5;;;;;;
64091;SPS30;50348;51.992;8.380;2023-05-15T06:28:48;17;;17;18.1;;;;;;
64091;SPS30;50348;51.992;8.380;2023-05-15T06:31:17;19.7;;19.7;16.2;;;;;;
64091;SPS30;50348;51.992;8.380;2023-05-15T06:34:06;20.8;;20.8;18.8;;;;;;
64091;SPS30;50348;51.992;8.380;2023-05-15T06:38:39;19.9;;19.9;19.8;;;;;;
64091;SPS30;50348;51.992;8.380;2023-05-15T06:41:06;21.3;;21.3;19;;;;;;
64091;SPS30;50348;51.992;8.380;2023-05-15T06:43:54;18.7;;18.7;20.3;;;;;;
64091;SPS30;50348;51.992;8.380;2023-05-15T06:48:24;19.9;;19.9;17.9;;;;;;
64091;SPS30;50348;51.992;8.380;2023-05-15T06:53:12;21.1;;21.1;19;;;;;;
64091;SPS30;50348;51.992;8.380;2023-05-15T06:58:20;19.7;;19.7;20.1;;;;;;
64091;SPS30;50348;51.992;8.380;2023-05-15T07:00:20;19.2;;19.2;18.8;;;;;;
64091;SPS30;50348;51.992;8.380;2023-05-15T07:02:42;17.6;;17.6;16.8;;;;;;
64091;SPS30;50348;51.992;8.380;2023-05-15T07:05:24;21.3;;21.3;20.3;;;;;;
64091;SPS30;50348;51.992;8.380;2023-05-15T07:08:27;21.6;;21.6;20.6;;;;;;
64091;SPS30;50348;51.992;8.380;2023-05-15T07:13:28;21.2;;21.2;20.3;;;;;;
64091;SPS30;50348;51.992;8.380;2023-05-15T07:16:29;21;;21;20;;;;;;
64091;SPS30;50348;51.992;8.380;2023-05-15T07:18:47;20.4;;20.4;19.4;;;;;;
64091;SPS30;50348;51.992;8.380;2023-05-15T07:21:26;19.3;;19.3;18.4;;;;;;
64091;SPS30;50348;51.992;8.380;2023-05-15T07:24:25;20.6;;20.6;19.6;;;;;;
64091;SPS30;50348;51.992;8.380;2023-05-15T07:29:19;19.3;;19.3;18.4;;;;;;
64091;SPS30;50348;51.992;8.380;2023-05-15T07:32:16;20;;20;19;;;;;;
64091;SPS30;50348;51.992;8.380;2023-05-15T07:34:30;19.8;;19.8;18.9;;;;;;
64091;SPS30;50348;51.992;8.380;2023-05-15T07:37:06;22;;22;21;;;;;;
64091;SPS30;50348;51.992;8.380;2023-05-15T07:42:14;20.3;;20.4;19.3;;;;;;
64091;SPS30;50348;51.992;8.380;2023-05-15T07:44:47;21.3;;21.5;20.3;;;;;;
64091;SPS30;50348;51.992;8.380;2023-05-15T07:47:43;21;;21;20;;;;;;
64091;SPS30;50348;51.992;8.380;2023-05-15T07:49:51;19;;19;18.2;;;;;;
64091;SPS30;50348;51.992;8.380;2023-05-15T07:55:15;22.4;;22.4;21.4;;;;;;
64091;SPS30;50348;51.992;8.380;2023-05-15T07:57:24;21.4;;21.4;20.4;;;;;;
64091;SPS30;50348;51.992;8.380;2023-05-15T07:59:54;21;;21;20.1;;;;;;
64091;SPS30;50348;51.992;8.380;2023-05-15T08:02:44;19.6;;19.6;18.7;;;;;;
64091;SPS30;50348;51.992;8.380;2023-05-15T08:07:19;22.1;;22.1;21.1;;;;;;
64091;SPS30;50348;51.992;8.380;2023-05-15T08:10:07;22;;22;20.9;;;;;;
64091;SPS30;50348;51.992;8.380;2023-05-15T08:12:13;23.4;;23.4;22.3;;;;;;
64091;SPS30;50348;51.992;8.380;2023-05-15T08:17:25;23;;23.1;21.9;;;;;;
64091;SPS30;50348;51.992;8.380;2023-05-15T08:19:28;22.4;;22.4;21.3;;;;;;
64091;SPS30;50348;51.992;8.380;2023-05-15T08:21:53;22.5;;22.5;21.4;;;;;;
64091;SPS30;50348;51.992;8.380;2023-05-15T08:24:38;21.3;;21.3;20.3;;;;;;
64091;SPS30;50348;51.992;8.380;2023-05-15T08:29:01;21.6;;21.6;20.6;;;;;;
64091;SPS30;50348;51.992;8.380;2023-05-15T08:31:24;20.5;;20.5;19.5;;;;;;
64091;SPS30;50348;51.992;8.380;2023-05-15T08:34:07;21;;21;20.1;;;;;;
64091;SPS30;50348;51.992;8.380;2023-05-15T08:37:11;21.8;;21.8;20.7;;;;;;
64091;SPS30;50348;51.992;8.380;2023-05-15T08:42:13;22;;22;21;;;;;;
64091;SPS30;50348;51.992;8.380;2023-05-15T08:44:54;24.5;;24.5;23.4;;;;;;
64091;SPS30;50348;51.992;8.380;2023-05-15T08:47:55;22.9;;22.9;21.8;;;;;;
64091;SPS30;50348;51.992;8.380;2023-05-15T08:50:15;17.7;;17.7;16.8;;;;;;
64091;SPS30;50348;51.992;8.380;2023-05-15T08:55:53;21.9;;21.9;20.8;;;;;;
64091;SPS30;50348;51.992;8.380;2023-05-15T08:58:10;20.1;;20.1;19.2;;;;;;
64091;SPS30;50348;51.992;8.380;2023-05-15T09:00:47;20.7;;20.7;19.8;;;;;;
64091;SPS30;50348;51.992;8.380;2023-05-15T09:03:46;28.8;;28.8;27.5;;;;;;
64091;SPS30;50348;51.992;8.380;2023-05-15T09:06:01;27.5;;27.6;26.1;;;;;;
64091;SPS30;50348;51.992;8.380;2023-05-15T09:11:33;28.2;;28.2;26.9;;;;;;
64091;SPS30;50348;51.992;8.380;2023-05-15T09:13:46;36.3;;36.3;34.6;;;;;;
64091;SPS30;50348;51.992;8.380;2023-05-15T09:15:51;36.4;;36.8;34.4;;;;;;
64091;SPS30;50348;51.992;8.380;2023-05-15T09:21:35;35;;35.5;33;;;;;;
64091;SPS30;50348;51.992;8.380;2023-05-15T09:23:51;36.8;;37.4;34.7;;;;;;
64091;SPS30;50348;51.992;8.380;2023-05-15T09:25:54;33.7;;34;31.9;;;;;;
64091;SPS30;50348;51.992;8.380;2023-05-15T09:28:26;31.7;;32.3;29.8;;;;;;
64091;SPS30;50348;51.992;8.380;2023-05-15T09:31:03;33.4;;34;31.3;;;;;;
64091;SPS30;50348;51.992;8.380;2023-05-15T09:35:27;30.5;;30.9;28.9;;;;;;
64091;SPS30;50348;51.992;8.380;2023-05-15T09:37:55;32;;32.1;30.3;;;;;;
64091;SPS30;50348;51.992;8.380;2023-05-15T09:40:31;28.6;;28.6;27.3;;;;;;
64091;SPS30;50348;51.992;8.380;2023-05-15T09:45:56;32.6;;33;30.8;;;;;;
64091;SPS30;50348;51.992;8.380;2023-05-15T09:48:37;32.5;;32.7;30.9;;;;;;
64091;SPS30;50348;51.992;8.380;2023-05-15T09:51:38;34.2;;34.3;32.5;;;;;;
64091;SPS30;50348;51.992;8.380;2023-05-15T09:56:37;33.3;;33.9;31.2;;;;;;
64091;SPS30;50348;51.992;8.380;2023-05-15T10:02:21;34.8;;35.3;32.7;;;;;;
64091;SPS30;50348;51.992;8.380;2023-05-15T10:04:33;31.6;;31.8;30.1;;;;;;
64091;SPS30;50348;51.992;8.380;2023-05-15T10:07:11;32.6;;33.1;30.7;;;;;;
64091;SPS30;50348;51.992;8.380;2023-05-15T10:10:09;32.5;;33;30.6;;;;;;
64091;SPS30;50348;51.992;8.380;2023-05-15T10:13:09;29.9;;29.9;28.5;;;;;;
64091;SPS30;50348;51.992;8.380;2023-05-15T10:15:24;29.5;;29.6;28.1;;;;;;
64091;SPS30;50348;51.992;8.380;2023-05-15T10:20:59;30.3;;30.4;28.8;;;;;;
64091;SPS30;50348;51.992;8.380;2023-05-15T10:23:13;32.5;;33.2;30.5;;;;;;
64091;SPS30;50348;51.992;8.380;2023-05-15T10:25:49;33.1;;33.3;31.5;;;;;;
64091;SPS30;50348;51.992;8.380;2023-05-15T10:28:44;31.2;;31.5;29.5;;;;;;
64091;SPS30;50348;51.992;8.380;2023-05-15T10:33:30;27.6;;27.8;26.2;;;;;;
64091;SPS30;50348;51.992;8.380;2023-05-15T10:36:24;30.6;;30.9;28.9;;;;;;
64091;SPS30;50348;51.992;8.380;2023-05-15T10:38:35;29.8;;30.1;28.3;;;;;;
64091;SPS30;50348;51.992;8.380;2023-05-15T10:41:06;32.2;;32.4;30.5;;;;;;
64091;SPS30;50348;51.992;8.380;2023-05-15T10:43:58;32.6;;32.8;30.8;;;;;;
64091;SPS30;50348;51.992;8.380;2023-05-15T10:48:36;31.2;;31.9;29.3;;;;;;
64091;SPS30;50348;51.992;8.380;2023-05-15T10:51:28;29.8;;30.1;28.1;;;;;;
64091;SPS30;50348;51.992;8.380;2023-05-15T10:53:34;31.6;;31.9;29.8;;;;;;
64091;SPS30;50348;51.992;8.380;2023-05-15T10:58:50;29.9;;30.3;28.1;;;;;;
64091;SPS30;50348;51.992;8.380;2023-05-15T11:00:55;28.8;;29.4;27;;;;;;
64091;SPS30;50348;51.992;8.380;2023-05-15T11:03:33;30.3;;30.6;28.6;;;;;;
64091;SPS30;50348;51.992;8.380;2023-05-15T11:06:08;31.9;;32.1;30.2;;;;;;
64091;SPS30;50348;51.992;8.380;2023-05-15T11:10:35;28.9;;29.3;27.3;;;;;;
64091;SPS30;50348;51.992;8.380;2023-05-15T11:13:00;29.7;;29.8;28.2;;;;;;
64091;SPS30;50348;51.992;8.380;2023-05-15T11:15:44;28.3;;28.7;26.7;;;;;;
64091;SPS30;50348;51.992;8.380;2023-05-15T11:20:08;27.1;;27.3;25.8;;;;;;
64091;SPS30;50348;51.992;8.380;2023-05-15T11:22:30;24.5;;24.6;23.3;;;;;;
64091;SPS30;50348;51.992;8.380;2023-05-15T11:25:13;30;;30.5;28.2;;;;;;
64091;SPS30;50348;51.992;8.380;2023-05-15T11:28:20;24.6;;24.6;23.5;;;;;;
64091;SPS30;50348;51.992;8.380;2023-05-15T11:33:19;27.9;;27.9;26.6;;;;;;
64091;SPS30;50348;51.992;8.380;2023-05-15T11:36:00;29.7;;30.2;27.9;;;;;;
64091;SPS30;50348;51.992;8.380;2023-05-15T11:39:02;27.5;;27.7;26;;;;;;
64091;SPS30;50348;51.992;8.380;2023-05-15T11:41:20;29.1;;29.2;27.6;;;;;;
64091;SPS30;50348;51.992;8.380;2023-05-15T11:47:00;27.2;;27.4;25.9;;;;;;
64091;SPS30;50348;51.992;8.380;2023-05-15T11:51:54;26.7;;26.8;25.5;;;;;;
64091;SPS30;50348;51.992;8.380;2023-05-15T11:54:53;25.4;;25.4;24.2;;;;;;
64091;SPS30;50348;51.992;8.380;2023-05-15T11:57:08;24.2;;24.4;22.9;;;;;;
64091;SPS30;50348;51.992;8.380;2023-05-15T12:02:40;22.4;;22.5;21.4;;;;;;
64091;SPS30;50348;51.992;8.380;2023-05-15T12:04:54;24.9;;25.1;23.5;;;;;;
64091;SPS30;50348;51.992;8.380;2023-05-15T12:07:28;24.3;;24.3;23.2;;;;;;
64091;SPS30;50348;51.992;8.380;2023-05-15T12:10:23;22.3;;22.3;21.2;;;;;;
64091;SPS30;50348;51.992;8.380;2023-05-15T12:15:08;21.5;;21.8;20.2;;;;;;
64091;SPS30;50348;51.992;8.380;2023-05-15T12:17:39;22.1;;22.1;21;;;;;;
64091;SPS30;50348;51.992;8.380;2023-05-15T12:20:32;22;;22;20.9;;;;;;
64091;SPS30;50348;51.992;8.380;2023-05-15T12:22:42;19.9;;20.1;18.8;;;;;;
64091;SPS30;50348;51.992;8.380;2023-05-15T12:28:03;25.7;;25.9;24.5;;;;;;
64091;SPS30;50348;51.992;8.380;2023-05-15T12:30:54;23.2;;23.4;21.9;;;;;;
64091;SPS30;50348;51.992;8.380;2023-05-15T12:33:03;24.5;;24.8;23.2;;;;;;
64091;SPS30;50348;51.992;8.380;2023-05-15T12:35:31;22.4;;22.4;21.4;;;;;;
64091;SPS30;50348;51.992;8.380;2023-05-15T12:38:20;23.1;;23.1;22;;;;;;
64091;SPS30;50348;51.992;8.380;2023-05-15T12:42:53;21.1;;21.2;20;;;;;;
64091;SPS30;50348;51.992;8.380;2023-05-15T12:45:41;21.7;;21.7;20.7;;;;;;
64091;SPS30;50348;51.992;8.380;2023-05-15T12:47:46;23.6;;23.6;22.5;;;;;;
64091;SPS30;50348;51.992;8.380;2023-05-15T12:52:56;22.5;;22.6;21.4;;;;;;
64091;SPS30;50348;51.992;8.380;2023-05-15T12:55:42;21.9;;22;20.8;;;;;;
64091;SPS30;50348;51.992;8.380;2023-05-15T12:57:44;19.1;;19.4;18;;;;;;
64091;SPS30;50348;51.992;8.380;2023-05-15T13:02:52;20.1;;20.1;19.2;;;;;;
64091;SPS30;50348;51.992;8.380;2023-05-15T13:04:51;19.4;;19.4;18.5;;;;;;
64091;SPS30;50348;51.992;8.380;2023-05-15T13:10:03;18.3;;18.3;18.3;;;;;;
64091;SPS30;50348;51.992;8.380;2023-05-15T13:12:58;17.8;;17.8;17.4;;;;;;
64091;SPS30;50348;51.992;8.380;2023-05-15T13:17:59;20.4;;20.4;17;;;;;;
64091;SPS30;50348;51.992;8.380;2023-05-15T13:20:39;18.6;;18.6;19.4;;;;;;
64091;SPS30;50348;51.992;8.380;2023-05-15T13:23:39;19.3;;19.3;17.8;;;;;;
64091;SPS30;50348;51.992;8.380;2023-05-15T13:31:34;21.6;;21.7;17.7;;;;;;
64091;SPS30;50348;51.992;8.380;2023-05-15T13:33:50;22.1;;22.2;20.6;;;;;;
64091;SPS30;50348;51.992;8.380;2023-05-15T13:36:27;18.1;;18.5;21;;;;;;
64091;SPS30;50348;51.992;8.380;2023-05-15T13:39:24;18.2;;18.2;17.1;;;;;;
64091;SPS30;50348;51.992;8.380;2023-05-15T13:41:39;19.6;;19.6;17.4;;;;;;
64091;SPS30;50348;51.992;8.380;2023-05-15T13:47:09;19.5;;19.9;18.7;;;;;;
64091;SPS30;50348;51.992;8.380;2023-05-15T13:49:22;19.1;;19.1;18.2;;;;;;
64091;SPS30;50348;51.992;8.380;2023-05-15T13:51:55;18.8;;18.8;17.9;;;;;;
64091;SPS30;50348;51.992;8.380;2023-05-15T13:54:49;16.9;;16.9;16.1;;;;;;
64091;SPS30;50348;51.992;8.380;2023-05-15T13:59:31;16.8;;16.8;16;;;;;;
64091;SPS30;50348;51.992;8.380;2023-05-15T14:02:23;14.6;;14.6;14;;;;;;
64091;SPS30;50348;51.992;8.380;2023-05-15T14:04:31;16.1;;16.1;15.3;;;;;;
64091;SPS30;50348;51.992;8.380;2023-05-15T14:11:42;15.5;;15.5;14.8;;;;;;
64091;SPS30;50348;51.992;8.380;2023-05-15T14:14:34;14.8;;14.8;14.1;;;;;;
64091;SPS30;50348;51.992;8.380;2023-05-15T14:16:42;14.2;;14.2;13.5;;;;;;
64091;SPS30;50348;51.992;8.380;2023-05-15T14:22:00;14.5;;14.5;13.8;;;;;;
64091;SPS30;50348;51.992;8.380;2023-05-15T14:24:06;13;;13;12.4;;;;;;
64091;SPS30;50348;51.992;8.380;2023-05-15T14:26:33;13.7;;13.7;13;;;;;;
64091;SPS30;50348;51.992;8.380;2023-05-15T14:29:20;14.3;;14.3;13.6;;;;;;
64091;SPS30;50348;51.992;8.380;2023-05-15T14:36:36;16.4;;16.4;15.6;;;;;;
64091;SPS30;50348;51.992;8.380;2023-05-15T14:39:21;15.3;;15.3;14.5;;;;;;
64091;SPS30;50348;51.992;8.380;2023-05-15T14:43:47;12.3;;12.3;11.7;;;;;;
64091;SPS30;50348;51.992;8.380;2023-05-15T14:48:32;15.5;;15.5;14.8;;;;;;
64091;SPS30;50348;51.992;8.380;2023-05-15T14:53:35;13.1;;13.1;12.5;;;;;;
64091;SPS30;50348;51.992;8.380;2023-05-15T14:56:38;12.7;;12.7;12.1;;;;;;
64091;SPS30;50348;51.992;8.380;2023-05-15T14:58:57;14.2;;14.2;13.5;;;;;;
64091;SPS30;50348;51.992;8.380;2023-05-15T15:01:38;15.7;;15.7;15;;;;;;
64091;SPS30;50348;51.992;8.380;2023-05-15T15:04:39;16.2;;16.2;15.5;;;;;;
64091;SPS30;50348;51.992;8.380;2023-05-15T15:09:36;15;;15;14.3;;;;;;
64091;SPS30;50348;51.992;8.380;2023-05-15T15:12:15;14.8;;14.8;14.1;;;;;;
64091;SPS30;50348;51.992;8.380;2023-05-15T15:15:14;18;;18;17.2;;;;;;
64091;SPS30;50348;51.992;8.380;2023-05-15T15:17:30;14.7;;14.7;14;;;;;;
64091;SPS30;50348;51.992;8.380;2023-05-15T15:20:07;15.4;;15.4;14.7;;;;;;
64091;SPS30;50348;51.992;8.380;2023-05-15T15:23:04;16.8;;16.8;16;;;;;;
64091;SPS30;50348;51.992;8.380;2023-05-15T15:27:53;14.9;;14.9;14.2;;;;;;
64091;SPS30;50348;51.992;8.380;2023-05-15T15:30:49;15.6;;15.6;14.9;;;;;;
64091;SPS30;50348;51.992;8.380;2023-05-15T15:33:01;15.1;;15.1;14.4;;;;;;
64091;SPS30;50348;51.992;8.380;2023-05-15T15:35:35;14.1;;14.1;13.5;;;;;;
64091;SPS30;50348;51.992;8.380;2023-05-15T15:40:39;14.6;;14.6;13.9;;;;;;
64091;SPS30;50348;51.992;8.380;2023-05-15T15:42:50;15.1;;15.1;14.4;;;;;;
64091;SPS30;50348;51.992;8.380;2023-05-15T15:45:22;13.9;;13.9;13.2;;;;;;
64091;SPS30;50348;51.992;8.380;2023-05-15T15:48:13;13.2;;13.2;12.6;;;;;;
64091;SPS30;50348;51.992;8.380;2023-05-15T15:52:52;11.9;;11.9;11.3;;;;;;
64091;SPS30;50348;51.992;8.380;2023-05-15T16:03:41;11.7;;11.7;11.1;;;;;;
64091;SPS30;50348;51.992;8.380;2023-05-15T16:06:01;11.8;;11.8;11.3;;;;;;
64091;SPS30;50348;51.992;8.380;2023-05-15T16:08:41;10;;10;9.5;;;;;;
64091;SPS30;50348;51.992;8.380;2023-05-15T16:11:42;10.6;;10.6;10.1;;;;;;
64091;SPS30;50348;51.992;8.380;2023-05-15T16:14:00;9;;9;8.6;;;;;;
64091;SPS30;50348;51.992;8.380;2023-05-15T16:19:39;8.9;;8.9;8.5;;;;;;
64091;SPS30;50348;51.992;8.380;2023-05-15T16:21:54;9.7;;9.7;9.3;;;;;;
64091;SPS30;50348;51.992;8.380;2023-05-15T16:24:31;9;;9;8.6;;;;;;
64091;SPS30;50348;51.992;8.380;2023-05-15T16:27:29;9.2;;9.2;8.8;;;;;;
64091;SPS30;50348;51.992;8.380;2023-05-15T16:29:43;9.1;;9.1;8.7;;;;;;
64091;SPS30;50348;51.992;8.380;2023-05-15T16:35:14;7.8;;7.8;7.4;;;;;;
64091;SPS30;50348;51.992;8.380;2023-05-15T16:37:27;8.2;;8.2;7.9;;;;;;
64091;SPS30;50348;51.992;8.380;2023-05-15T16:40:00;8.8;;8.8;8.4;;;;;;
64091;SPS30;50348;51.992;8.380;2023-05-15T16:42:54;8.4;;8.4;8;;;;;;
64091;SPS30;50348;51.992;8.380;2023-05-15T16:47:36;8.1;;8.1;7.7;;;;;;
64091;SPS30;50348;51.992;8.380;2023-05-15T16:50:28;7.9;;7.9;7.6;;;;;;
64091;SPS30;50348;51.992;8.380;2023-05-15T16:55:06;8.7;;8.7;8.3;;;;;;
64091;SPS30;50348;51.992;8.380;2023-05-15T17:00:04;8.4;;8.4;8;;;;;;
64091;SPS30;50348;51.992;8.380;2023-05-15T17:02:31;8.5;;8.5;8.1;;;;;;
64091;SPS30;50348;51.992;8.380;2023-05-15T17:05:20;8.7;;8.7;8.3;;;;;;
64091;SPS30;50348;51.992;8.380;2023-05-15T17:09:51;7.7;;7.7;7.4;;;;;;
64091;SPS30;50348;51.992;8.380;2023-05-15T17:12:38;8.2;;8.2;7.8;;;;;;
64091;SPS30;50348;51.992;8.380;2023-05-15T17:17:05;8.7;;8.7;8.3;;;;;;
64091;SPS30;50348;51.992;8.380;2023-05-15T17:21:52;9.3;;9.3;8.9;;;;;;
64091;SPS30;50348;51.992;8.380;2023-05-15T17:24:14;9.2;;9.2;8.8;;;;;;
64091;SPS30;50348;51.992;8.380;2023-05-15T17:26:57;8;;8;7.6;;;;;;
64091;SPS30;50348;51.992;8.380;2023-05-15T17:30:01;8.2;;8.2;7.8;;;;;;
64091;SPS30;50348;51.992;8.380;2023-05-15T17:35:03;7.7;;7.7;7.3;;;;;;
64091;SPS30;50348;51.992;8.380;2023-05-15T17:40:46;8.6;;8.6;8.2;;;;;;
64091;SPS30;50348;51.992;8.380;2023-05-15T17:43:05;8.9;;8.9;8.5;;;;;;
64091;SPS30;50348;51.992;8.380;2023-05-15T17:45:45;8.7;;8.7;8.3;;;;;;
64091;SPS30;50348;51.992;8.380;2023-05-15T17:48:45;9.4;;9.4;9;;;;;;
64091;SPS30;50348;51.992;8.380;2023-05-15T17:53:40;9.2;;9.2;8.7;;;;;;
64091;SPS30;50348;51.992;8.380;2023-05-15T17:56:38;8.9;;8.9;8.5;;;;;;
64091;SPS30;50348;51.992;8.380;2023-05-15T17:59:38;9.8;;9.8;9.3;;;;;;
64091;SPS30;50348;51.992;8.380;2023-05-15T18:01:54;8.7;;8.7;8.3;;;;;;
64091;SPS30;50348;51.992;8.380;2023-05-15T18:07:29;8.2;;8.2;7.8;;;;;;
64091;SPS30;50348;51.992;8.380;2023-05-15T18:09:43;9.7;;9.7;9.2;;;;;;
64091;SPS30;50348;51.992;8.380;2023-05-15T18:12:18;9.9;;9.9;9.4;;;;;;
64091;SPS30;50348;51.992;8.380;2023-05-15T18:15:14;9;;9;8.6;;;;;;
64091;SPS30;50348;51.992;8.380;2023-05-15T18:17:27;8.3;;8.3;7.9;;;;;;
64091;SPS30;50348;51.992;8.380;2023-05-15T18:22:53;8.5;;8.5;8.1;;;;;;
64091;SPS30;50348;51.992;8.380;2023-05-15T18:25:04;7.9;;7.9;7.6;;;;;;
64091;SPS30;50348;51.992;8.380;2023-05-15T18:27:35;6.9;;6.9;6.6;;;;;;
64091;SPS30;50348;51.992;8.380;2023-05-15T18:30:27;6;;6;5.7;;;;;;
64091;SPS30;50348;51.992;8.380;2023-05-15T18:35:05;4.8;;4.8;4.6;;;;;;
64091;SPS30;50348;51.992;8.380;2023-05-15T18:37:56;5.2;;5.2;5;;;;;;
64091;SPS30;50348;51.992;8.380;2023-05-15T18:40:03;5.5;;5.5;5.2;;;;;;
64091;SPS30;50348;51.992;8.380;2023-05-15T18:45:19;6.7;;6.7;6.4;;;;;;
64091;SPS30;50348;51.992;8.380;2023-05-15T18:47:24;7.4;;7.4;7;;;;;;
64091;SPS30;50348;51.992;8.380;2023-05-15T18:49:50;7.5;;7.5;7.2;;;;;;
64091;SPS30;50348;51.992;8.380;2023-05-15T18:52:36;7.2;;7.2;6.8;;;;;;
64091;SPS30;50348;51.992;8.380;2023-05-15T18:57:04;7.9;;7.9;7.5;;;;;;